D/T METAR WX W/DIR W/SPE G/SPE TEMP DEWP
16/01/19 02:50 EGYD 160250Z AUTO 21017KT 9999 // FEW016/// BKN021/// 08/06 Q1006 SSW (210°) 19.6mph 8°C 6°C
16/01/19 01:50 EGYD 160150Z AUTO 22019KT 9999 // BKN019/// BKN160/// 08/06 Q1007 SW (220°) 21.9mph 8°C 6°C
16/01/19 00:50 EGYD 160050Z AUTO 23018KT 9999 // FEW029/// SCT034/// BKN140/// 08/06 Q1008 SW (230°) 20.7mph 8°C 6°C
15/01/19 23:50 EGYD 152350Z AUTO 23017KT 9999 // BKN027/// BKN150/// 08/06 Q1008 SW (230°) 19.6mph 8°C 6°C
15/01/19 22:50 EGYD 152250Z AUTO 22017KT 9999 // FEW026/// BKN130/// 08/05 Q1009 SW (220°) 19.6mph 8°C 5°C
15/01/19 21:50 EGYD 152150Z AUTO 23012KT 9999 // OVC150/// 08/05 Q1010 SW (230°) 13.8mph 8°C 5°C
15/01/19 20:50 EGYD 152050Z AUTO 22012KT 9999 // SCT029/// BKN150/// 08/05 Q1011 SW (220°) 13.8mph 8°C 5°C
15/01/19 19:50 EGYD 151950Z AUTO 24013KT 9999 // BKN029/// SCT180/// 08/05 Q1011 WSW (240°) 15.0mph 8°C 5°C
15/01/19 18:50 EGYD 151850Z AUTO 23015KT 9999 // BKN032/// 08/06 Q1012 SW (230°) 17.3mph 8°C 6°C
15/01/19 17:50 EGYD 151750Z AUTO 23009KT 9999 // FEW036/// BKN170/// 08/05 Q1012 SW (230°) 10.4mph 8°C 5°C
15/01/19 16:50 EGYD 151650Z 24013KT 9999 BKN030 BKN180 08/05 Q1013 BLU WSW (240°) 15.0mph 8°C 5°C
15/01/19 15:50 EGYD 151550Z 23012KT 9999 BKN035 09/05 Q1013 BLU NOSIG SW (230°) 13.8mph 9°C 5°C
15/01/19 14:50 EGYD 151450Z 24014KT 9999 FEW018 SCT038 BKN250 09/05 Q1014 BLU NOSIG WSW (240°) 16.1mph 9°C 5°C
15/01/19 13:50 EGYD 151350Z 24015KT 9999 FEW016 BKN240 09/05 Q1014 BLU NOSIG WSW (240°) 17.3mph 9°C 5°C
15/01/19 12:50 EGYD 151250Z 25016KT 9999 FEW016 SCT240 10/06 Q1015 BLU NOSIG WSW (250°) 18.4mph 10°C 6°C
15/01/19 11:50 EGYD 151150Z 25020KT 9999 FEW040 SCT250 09/05 Q1015 BLU NOSIG WSW (250°) 23.0mph 9°C 5°C
15/01/19 10:50 EGYD 151050Z 25017KT 9999 FEW040 08/05 Q1016 BLU NOSIG WSW (250°) 19.6mph 8°C 5°C
15/01/19 09:50 EGYD 150950Z 25014KT 9999 FEW040 SCT250 07/05 Q1016 BLU NOSIG WSW (250°) 16.1mph 7°C 5°C
15/01/19 08:50 EGYD 150850Z 25016KT 9999 FEW040 07/04 Q1016 BLU NOSIG WSW (250°) 18.4mph 7°C 4°C
15/01/19 07:50 EGYD 150750Z 25015KT 9999 FEW035 06/04 Q1016 BLU TEMPO SCT020 WHT WSW (250°) 17.3mph 6°C 4°C
15/01/19 06:50 EGYD 150650Z 23009KT 9999 BKN035 06/04 Q1016 BLU NOSIG SW (230°) 10.4mph 6°C 4°C
15/01/19 05:50 EGYD 150550Z AUTO 23011KT 9999 // OVC032/// 06/04 Q1017 SW (230°) 12.7mph 6°C 4°C
15/01/19 04:50 EGYD 150450Z AUTO 24012KT 9999 // OVC030/// 05/04 Q1017 WSW (240°) 13.8mph 5°C 4°C
15/01/19 03:50 EGYD 150350Z AUTO 25014KT 9999 // BKN032/// 04/03 Q1018 WSW (250°) 16.1mph 4°C 3°C
15/01/19 02:50 EGYD 150250Z AUTO 25016KT 9999 // FEW170/// 04/02 Q1018 WSW (250°) 18.4mph 4°C 2°C
15/01/19 01:50 EGYD 150150Z AUTO 25016KT 9999 // NCD 04/02 Q1019 WSW (250°) 18.4mph 4°C 2°C
15/01/19 00:50 EGYD 150050Z AUTO 25015KT 9999 // NCD 04/02 Q1019 WSW (250°) 17.3mph 4°C 2°C
14/01/19 23:50 EGYD 142350Z AUTO 26014KT 9999 // FEW029/// 04/03 Q1020 W (260°) 16.1mph 4°C 3°C
14/01/19 22:50 EGYD 142250Z AUTO 26010KT 9999 // NCD 04/03 Q1020 W (260°) 11.5mph 4°C 3°C
14/01/19 21:50 EGYD 142150Z AUTO 26013KT 9999 // BKN035/// 05/04 Q1020 W (260°) 15.0mph 5°C 4°C
14/01/19 20:50 EGYD 142050Z AUTO 26010KT 9999 // SCT045/// SCT060/// 05/04 Q1020 W (260°) 11.5mph 5°C 4°C
14/01/19 19:50 EGYD 141950Z AUTO 25011KT 9999 // BKN043/// 04/03 Q1020 WSW (250°) 12.7mph 4°C 3°C
14/01/19 18:50 EGYD 141850Z AUTO 26009KT 9999 // BKN036/// 06/04 Q1021 W (260°) 10.4mph 6°C 4°C
14/01/19 17:50 EGYD 141750Z AUTO 26007KT 9999 // FEW035/// BKN050/// 06/04 Q1021 W (260°) 8.1mph 6°C 4°C
14/01/19 16:50 EGYD 141650Z 22004KT 9999 FEW035 BKN050 05/03 Q1020 BLU NOSIG SW (220°) 4.6mph 5°C 3°C
14/01/19 15:50 EGYD 141550Z 31006KT 9999 FEW022 BKN050 07/02 Q1020 BLU NOSIG NW (310°) 6.9mph 7°C 2°C
14/01/19 14:50 EGYD 141450Z 32007KT 9999 FEW028 BKN050 07/02 Q1020 BLU NOSIG NW (320°) 8.1mph 7°C 2°C
14/01/19 13:50 EGYD 141350Z 31009KT 9999 FEW028 BKN046 08/03 Q1020 BLU NOSIG NW (310°) 10.4mph 8°C 3°C
14/01/19 12:50 EGYD 141250Z 31007KT 9999 FEW025 BKN043 08/04 Q1020 BLU NOSIG NW (310°) 8.1mph 8°C 4°C
14/01/19 11:50 EGYD 141150Z 31007KT 9999 FEW019 BKN048 07/04 Q1020 BLU NOSIG NW (310°) 8.1mph 7°C 4°C
14/01/19 10:50 EGYD 141050Z 31006KT 9999 BKN022 BKN045 07/04 Q1020 WHT TEMPO FEW022 BKN045 BLU NW (310°) 6.9mph 7°C 4°C
14/01/19 09:50 EGYD 140950Z 31009KT 9999 FEW028 BKN043 06/03 Q1019 BLU TEMPO SCT018 WHT NW (310°) 10.4mph 6°C 3°C
14/01/19 08:50 EGYD 140850Z 29009KT 9999 BKN034 05/03 Q1018 BLU TEMPO SCT018 WHT WNW (290°) 10.4mph 5°C 3°C
14/01/19 07:50 EGYD 140750Z 29010KT 9999 FEW041 SCT160 05/02 Q1017 BLU TEMPO SCT018 WHT WNW (290°) 11.5mph 5°C 2°C
14/01/19 06:50 EGYD 140650Z 29009KT 9999 FEW041 BKN180 06/03 Q1017 BLU TEMPO SCT018 WHT WNW (290°) 10.4mph 6°C 3°C
14/01/19 05:50 EGYD 140550Z AUTO 30011KT 9999 // NCD 05/03 Q1016 WNW (300°) 12.7mph 5°C 3°C
14/01/19 04:50 EGYD 140450Z AUTO 30011KT 9999 // NCD 06/03 Q1015 WNW (300°) 12.7mph 6°C 3°C
14/01/19 03:50 EGYD 140350Z AUTO 29013KT 9999 // NCD 06/03 Q1014 WNW (290°) 15.0mph 6°C 3°C
14/01/19 02:50 EGYD 140250Z AUTO 29013KT 9999 // NCD 06/03 Q1014 WNW (290°) 15.0mph 6°C 3°C
14/01/19 01:50 EGYD 140150Z AUTO 29013KT 9999 // NCD 06/03 Q1013 WNW (290°) 15.0mph 6°C 3°C
14/01/19 00:50 EGYD 140050Z AUTO 29013KT 9999 // NCD 06/02 Q1012 WNW (290°) 15.0mph 6°C 2°C
13/01/19 23:50 EGYD 132350Z AUTO 29011KT 9999 // NCD 06/02 Q1012 WNW (290°) 12.7mph 6°C 2°C
13/01/19 22:50 EGYD 132250Z AUTO 30016KT 9999 // NCD 07/03 Q1011 WNW (300°) 18.4mph 7°C 3°C
13/01/19 21:50 EGYD 132150Z AUTO 29015KT 9999 // NCD 07/03 Q1011 WNW (290°) 17.3mph 7°C 3°C
13/01/19 20:50 EGYD 132050Z AUTO 29017G29KT 9999 // SCT050/// 08/03 Q1010 WNW (290°) 19.6mph 33.4mph 8°C 3°C
13/01/19 19:50 EGYD 131950Z AUTO 29017KT 9999 // FEW032/// 07/03 Q1010 WNW (290°) 19.6mph 7°C 3°C
13/01/19 18:50 EGYD 131850Z AUTO 29020G32KT 9999 // NCD 08/03 Q1009 WNW (290°) 23.0mph 36.8mph 8°C 3°C
13/01/19 17:50 EGYD 131750Z AUTO 30019G29KT 9999 // FEW050/// 08/03 Q1009 WNW (300°) 21.9mph 33.4mph 8°C 3°C
13/01/19 16:50 EGYD 131650Z AUTO 30021KT 9999 // BKN033/// BKN044/// BKN050/// 10/04 Q1008 WNW (300°) 24.2mph 10°C 4°C
13/01/19 15:50 EGYD 131550Z AUTO 30016KT 9999 // FEW028/// BKN039/// 10/06 Q1008 WNW (300°) 18.4mph 10°C 6°C
13/01/19 14:50 EGYD 131450Z AUTO 30021KT 9999 // SCT034/// BKN042/// 11/06 Q1007 WNW (300°) 24.2mph 11°C 6°C
13/01/19 13:50 EGYD 131350Z 28019KT 9999 SCT025 SCT040 BKN150 11/06 Q1008 BLU W (280°) 21.9mph 11°C 6°C
13/01/19 12:50 EGYD 131250Z 28021G33KT 9999 SCT022 BKN035 BKN250 11/07 Q1008 WHT W (280°) 24.2mph 38.0mph 11°C 7°C
13/01/19 11:50 EGYD 131150Z 27021KT 9999 FEW006 BKN012 OVC020 09/08 Q1008 GRN W (270°) 24.2mph 9°C 8°C
13/01/19 10:50 EGYD 131050Z 26023KT 9999 SCT006 BKN012 OVC028 09/08 Q1009 YLO1 W (260°) 26.5mph 9°C 8°C
13/01/19 10:16 EGYD 131016Z 26024KT 9999 SCT008 BKN028 OVC100 09/07 Q1010 GRN TEMPO FEW008 BKN018 WHT W (260°) 27.6mph 9°C 7°C
13/01/19 08:50 EGYD 130850Z 28019KT 9999 FEW016 BKN100 BKN250 09/06 Q1010 BLU BECMG BKN018 WHT W (280°) 21.9mph 9°C 6°C
13/01/19 07:50 EGYD 130750Z 28024KT 9999 SCT018 BKN100 BKN250 10/07 Q1010 WHT W (280°) 27.6mph 10°C 7°C
13/01/19 06:50 EGYD 130650Z AUTO 27020KT 9999 // BKN016/// BKN170/// 10/07 Q1010 W (270°) 23.0mph 10°C 7°C
13/01/19 05:50 EGYD 130550Z AUTO 27023KT 9999 // BKN016/// SCT110/// BKN140/// 10/07 Q1011 W (270°) 26.5mph 10°C 7°C
13/01/19 04:50 EGYD 130450Z AUTO 28019KT 9999 // BKN021/// SCT150/// 10/07 Q1011 W (280°) 21.9mph 10°C 7°C
13/01/19 03:50 EGYD 130350Z AUTO 28022G34KT 9999 // FEW023/// BKN170/// 10/07 Q1012 W (280°) 25.3mph 39.1mph 10°C 7°C
13/01/19 02:50 EGYD 130250Z AUTO 28019G30KT 9999 // FEW021/// BKN100/// 10/07 Q1013 W (280°) 21.9mph 34.5mph 10°C 7°C
13/01/19 01:50 EGYD 130150Z AUTO 28020G32KT 9999 // FEW019/// BKN090/// 10/07 Q1013 W (280°) 23.0mph 36.8mph 10°C 7°C
13/01/19 00:50 EGYD 130050Z AUTO 28017KT 9999 // OVC019/// 11/08 Q1014 W (280°) 19.6mph 11°C 8°C
12/01/19 23:50 EGYD 122350Z AUTO 29016KT 9999 // BKN021/// BKN100/// BKN130/// 10/08 Q1014 WNW (290°) 18.4mph 10°C 8°C
12/01/19 22:50 EGYD 122250Z AUTO 29020G30KT 9999 // BKN018/// BKN120/// 10/08 Q1015 WNW (290°) 23.0mph 34.5mph 10°C 8°C
12/01/19 21:50 EGYD 122150Z AUTO 28017KT 9999 // BKN018/// SCT100/// 10/08 Q1015 W (280°) 19.6mph 10°C 8°C
12/01/19 20:50 EGYD 122050Z AUTO 28014KT 9999 // BKN018/// BKN130/// 10/08 Q1015 W (280°) 16.1mph 10°C 8°C
12/01/19 19:50 EGYD 121950Z AUTO 28015KT 9999 // BKN019/// 09/08 Q1015 W (280°) 17.3mph 9°C 8°C
12/01/19 18:50 EGYD 121850Z AUTO 27012KT 9999 // BKN015/// BKN021/// 09/07 Q1016 W (270°) 13.8mph 9°C 7°C
12/01/19 17:50 EGYD 121750Z AUTO 27014KT 6000 // BKN018/// SCT050/// 08/07 Q1016 W (270°) 16.1mph 8°C 7°C
12/01/19 16:50 EGYD 121650Z AUTO 27015KT 6000 // FEW028/// BKN048/// 07/06 Q1017 W (270°) 17.3mph 7°C 6°C
12/01/19 15:50 EGYD 121550Z AUTO 27015KT 6000 // FEW020/// BKN050/// BKN070/// 08/06 Q1017 W (270°) 17.3mph 8°C 6°C
12/01/19 14:50 EGYD 121450Z 28017KT 9999 SCT022 OVC090 09/05 Q1017 WHT W (280°) 19.6mph 9°C 5°C
12/01/19 13:50 EGYD 121350Z 28020KT 9999 SCT028 OVC090 09/06 Q1017 BLU BECMG SCT020 WHT W (280°) 23.0mph 9°C 6°C
12/01/19 12:50 EGYD 121250Z 28018KT 9999 FEW030 OVC090 09/06 Q1018 BLU TEMPO SCT020 WHT W (280°) 20.7mph 9°C 6°C
12/01/19 11:50 EGYD 121150Z 28017KT 9999 FEW020 SCT035 OVC090 09/06 Q1019 BLU TEMPO SCT020 WHT W (280°) 19.6mph 9°C 6°C
12/01/19 10:50 EGYD 121050Z 28016KT 9999 FEW030 OVC100 09/06 Q1019 BLU TEMPO SCT018 WHT W (280°) 18.4mph 9°C 6°C
12/01/19 09:50 EGYD 120950Z 27017KT 9999 FEW018 SCT040 OVC100 09/06 Q1019 BLU TEMPO SCT018 WHT W (270°) 19.6mph 9°C 6°C
12/01/19 08:50 EGYD 120850Z 26014KT 9999 FEW012 OVC120 08/07 Q1020 BLU TEMPO SCT018 WHT W (260°) 16.1mph 8°C 7°C
12/01/19 07:50 EGYD 120750Z 25019KT 9999 -RA BKN004 OVC018 08/07 Q1020 YLO2 BECMG NSW BKN030 BLU -RA WSW (250°) 21.9mph 8°C 7°C
12/01/19 06:50 EGYD 120650Z AUTO 25017KT 4900 // FEW008/// SCT022/// BKN031/// 08/07 Q1020 WSW (250°) 19.6mph 8°C 7°C
12/01/19 05:50 EGYD 120550Z AUTO 25017KT 9999 // BKN050/// BKN190/// 08/06 Q1021 WSW (250°) 19.6mph 8°C 6°C
12/01/19 04:50 EGYD 120450Z AUTO 26017KT 9999 // BKN050/// BKN180/// 08/06 Q1021 W (260°) 19.6mph 8°C 6°C
12/01/19 03:50 EGYD 120350Z AUTO 25015KT 9999 // BKN210/// 07/05 Q1022 WSW (250°) 17.3mph 7°C 5°C
12/01/19 02:50 EGYD 120250Z AUTO 25014KT 9999 // BKN017/// 07/05 Q1023 WSW (250°) 16.1mph 7°C 5°C
12/01/19 01:50 EGYD 120150Z AUTO 25013KT 9999 // OVC022/// 07/05 Q1024 WSW (250°) 15.0mph 7°C 5°C
12/01/19 00:50 EGYD 120050Z AUTO 25013KT 9999 // BKN025/// 07/05 Q1025 WSW (250°) 15.0mph 7°C 5°C
11/01/19 23:50 EGYD 112350Z AUTO 25011KT 9999 // OVC027/// 07/05 Q1025 WSW (250°) 12.7mph 7°C 5°C
11/01/19 22:50 EGYD 112250Z AUTO 25011KT 9999 // OVC028/// 07/04 Q1027 WSW (250°) 12.7mph 7°C 4°C
11/01/19 21:50 EGYD 112150Z AUTO 26011KT 9999 // OVC030/// 06/04 Q1027 W (260°) 12.7mph 6°C 4°C
11/01/19 20:50 EGYD 112050Z AUTO 25010KT 9999 // BKN025/// BKN034/// 06/03 Q1028 WSW (250°) 11.5mph 6°C 3°C
11/01/19 19:50 EGYD 111950Z AUTO 27006KT 9999 // OVC032/// 07/03 Q1028 W (270°) 6.9mph 7°C 3°C
11/01/19 18:50 EGYD 111850Z AUTO 27007KT 9999 // OVC028/// 07/03 Q1029 W (270°) 8.1mph 7°C 3°C
11/01/19 17:50 EGYD 111750Z AUTO 30008KT 9999 // OVC026/// 07/03 Q1029 WNW (300°) 9.2mph 7°C 3°C
11/01/19 16:50 EGYD 111650Z 31007KT 9999 SCT026 BKN033 OVC250 07/03 Q1029 BLU NW (310°) 8.1mph 7°C 3°C
11/01/19 15:50 EGYD 111550Z 31005KT 9999 FEW022 BKN034 07/04 Q1029 BLU NOSIG NW (310°) 5.8mph 7°C 4°C
11/01/19 14:50 EGYD 111450Z 31005KT 9999 FEW020 BKN037 08/04 Q1029 BLU NOSIG NW (310°) 5.8mph 8°C 4°C
11/01/19 13:50 EGYD 111350Z 31009KT 9999 BKN041 08/04 Q1029 BLU NOSIG NW (310°) 10.4mph 8°C 4°C
11/01/19 12:50 EGYD 111250Z 31010KT 9999 BKN039 BKN250 08/03 Q1029 BLU NOSIG NW (310°) 11.5mph 8°C 3°C
11/01/19 11:50 EGYD 111150Z 30009KT 9999 BKN039 07/04 Q1030 BLU NOSIG WNW (300°) 10.4mph 7°C 4°C
11/01/19 10:50 EGYD 111050Z 29010KT 9999 BKN040 07/04 Q1030 BLU NOSIG WNW (290°) 11.5mph 7°C 4°C
11/01/19 09:50 EGYD 110950Z 29009KT 9999 BKN043 06/03 Q1030 BLU NOSIG WNW (290°) 10.4mph 6°C 3°C
11/01/19 08:50 EGYD 110850Z 30009KT 9999 FEW015 BKN044 06/03 Q1030 BLU NOSIG WNW (300°) 10.4mph 6°C 3°C
11/01/19 07:50 EGYD 110750Z 31008KT 9999 BKN045 BKN250 06/03 Q1029 BLU NOSIG NW (310°) 9.2mph 6°C 3°C
11/01/19 06:50 EGYD 110650Z 31008KT CAVOK 06/03 Q1029 BLU NOSIG NW (310°) 9.2mph 6°C 3°C
11/01/19 05:50 EGYD 110550Z 31008KT CAVOK 06/03 Q1029 BLU NW (310°) 9.2mph 6°C 3°C
11/01/19 04:50 EGYD 110450Z AUTO 30007KT 9999 // OVC050/// 06/04 Q1029 WNW (300°) 8.1mph 6°C 4°C
11/01/19 03:50 EGYD 110350Z AUTO 31009KT 9999 // OVC050/// 06/04 Q1029 NW (310°) 10.4mph 6°C 4°C
11/01/19 02:50 EGYD 110250Z AUTO 31009KT 9999 // OVC050/// 06/04 Q1029 NW (310°) 10.4mph 6°C 4°C
11/01/19 01:50 EGYD 110150Z AUTO 31009KT 9999 // BKN050/// 06/04 Q1029 NW (310°) 10.4mph 6°C 4°C
11/01/19 00:50 EGYD 110050Z AUTO 31010KT 9999 // FEW028/// BKN050/// 07/04 Q1029 NW (310°) 11.5mph 7°C 4°C
10/01/19 23:50 EGYD 102350Z AUTO 30009KT 9999 // BKN024/// SCT060/// 07/05 Q1029 WNW (300°) 10.4mph 7°C 5°C
10/01/19 22:50 EGYD 102250Z AUTO 31009KT 9999 // BKN021/// BKN060/// 07/05 Q1029 NW (310°) 10.4mph 7°C 5°C
10/01/19 21:50 EGYD 102150Z AUTO 31009KT 9999 // OVC022/// 07/05 Q1029 NW (310°) 10.4mph 7°C 5°C
10/01/19 20:50 EGYD 102050Z AUTO 32010KT 9999 // BKN021/// BKN050/// 08/05 Q1029 NW (320°) 11.5mph 8°C 5°C
10/01/19 19:50 EGYD 101950Z AUTO 30010KT 9999 // FEW026/// OVC050/// 07/05 Q1028 WNW (300°) 11.5mph 7°C 5°C
10/01/19 18:50 EGYD 101850Z AUTO 29010KT 9999 // OVC050/// 07/06 Q1028 WNW (290°) 11.5mph 7°C 6°C
10/01/19 17:50 EGYD 101750Z AUTO 29010KT 8000 // OVC050/// 07/05 Q1028 WNW (290°) 11.5mph 7°C 5°C
10/01/19 16:50 EGYD 101650Z 27010KT 8000 HZ BKN050 06/05 Q1028 BLU HZ W (270°) 11.5mph 6°C 5°C
10/01/19 15:50 EGYD 101550Z 27009KT 8000 HZ FEW007 BKN050 06/04 Q1028 BLU TEMPO SCT007 GRN HZ W (270°) 10.4mph 6°C 4°C
10/01/19 14:50 EGYD 101450Z 27010KT 8000 HZ BKN009 05/04 Q1029 GRN NOSIG HZ W (270°) 11.5mph 5°C 4°C
10/01/19 14:20 EGYD 101420Z 28009KT 8000 HZ SCT006 BKN010 05/04 Q1029 YLO1 TEMPO FEW006 BKN010 GRN HZ W (280°) 10.4mph 5°C 4°C
10/01/19 12:50 EGYD 101250Z 27008KT 9999 SCT007 BKN012 04/03 Q1029 GRN NOSIG W (270°) 9.2mph 4°C 3°C
10/01/19 12:14 EGYD 101214Z 27006KT 9999 BKN012 04/02 Q1029 GRN NOSIG W (270°) 6.9mph 4°C 2°C
10/01/19 10:50 EGYD 101050Z 27008KT 9999 BKN028 03/01 Q1030 BLU TEMPO SCT014 BKN020 GRN W (270°) 9.2mph 3°C 1°C
10/01/19 09:50 EGYD 100950Z 26009KT 9999 BKN043 02/00 Q1030 BLU NOSIG W (260°) 10.4mph 2°C 0°C
10/01/19 08:50 EGYD 100850Z 26008KT 9999 SCT045 BKN090 02/M00 Q1030 BLU NOSIG W (260°) 9.2mph 2°C 0°C
10/01/19 07:50 EGYD 100750Z 26007KT 9999 BKN040 BKN090 02/M00 Q1030 BLU NOSIG W (260°) 8.1mph 2°C 0°C
10/01/19 06:50 EGYD 100650Z 26006KT CAVOK 02/M00 Q1030 BLU NOSIG W (260°) 6.9mph 2°C 0°C
10/01/19 05:50 EGYD 100550Z AUTO 27006KT 9999 // SCT050/// OVC090/// 01/M01 Q1030 W (270°) 6.9mph 1°C -1°C
10/01/19 04:50 EGYD 100450Z AUTO 28008KT 9999 // FEW060/// OVC090/// 02/M01 Q1030 W (280°) 9.2mph 2°C -1°C
10/01/19 03:50 EGYD 100350Z AUTO 29009KT 9999 // FEW070/// OVC090/// 02/M01 Q1030 WNW (290°) 10.4mph 2°C -1°C